Time;durP1;ratioP1;P1;durP2;ratioP2;P2;SDS_P1;SDS_P2;PMS_P1;PMS_P2;Temp;Humidity;BMP_temperature;BMP_pressure;BME280_temperature;BME280_humidity;BME280_pressure;Samples;Min_cycle;Max_cycle;Signal;HPM_P1;HPM_P2
2021/04/02 00:00:59;;;;;;;17.05;9.58;;;;;;;9.06;48.20;100530.57;1735567;82;25470;-57
2021/04/02 00:03:33;;;;;;;16.90;9.15;;;;;;;9.07;48.50;100522.02;1735570;82;25700;-57
2021/04/02 00:06:04;;;;;;;20.62;10.05;;;;;;;9.04;48.09;100513.75;1735527;82;25656;-57
2021/04/02 00:08:33;;;;;;;14.60;9.68;;;;;;;9.05;48.04;100514.61;1704998;81;27545;-57
2021/04/02 00:11:11;;;;;;;19.32;10.10;;;;;;;9.04;48.49;100516.43;1735365;82;25686;-57
2021/04/02 00:13:47;;;;;;;16.02;9.55;;;;;;;9.04;48.39;100504.36;1735373;82;25671;-57
2021/04/02 00:16:17;;;;;;;23.35;10.60;;;;;;;8.98;48.94;100508.05;1733389;82;25688;-57
2021/04/02 00:18:46;;;;;;;19.65;10.28;;;;;;;8.92;48.88;100503.59;1755891;81;26125;-57
2021/04/02 00:21:17;;;;;;;21.45;10.15;;;;;;;8.91;48.72;100496.52;1733944;82;27537;-57
2021/04/02 00:23:45;;;;;;;23.95;11.55;;;;;;;8.92;48.75;100498.70;1732316;82;25688;-57
2021/04/02 00:26:18;;;;;;;20.02;10.72;;;;;;;8.91;48.92;100503.73;1788566;79;25741;-57
2021/04/02 00:28:48;;;;;;;20.65;11.68;;;;;;;8.91;48.76;100490.31;1813779;78;25740;-58
2021/04/02 00:31:17;;;;;;;16.60;10.60;;;;;;;8.88;49.24;100487.38;1818002;78;25690;-57
2021/04/02 00:33:45;;;;;;;18.77;10.58;;;;;;;8.86;49.13;100482.66;1817412;78;27527;-57
2021/04/02 00:36:14;;;;;;;20.43;10.85;;;;;;;8.85;49.62;100482.78;1817977;78;25701;-57
2021/04/02 00:38:43;;;;;;;16.07;10.85;;;;;;;8.85;49.17;100480.96;1817852;78;25661;-57
2021/04/02 00:41:15;;;;;;;20.52;11.30;;;;;;;8.86;49.37;100479.98;1785615;78;25924;-57
2021/04/02 00:43:47;;;;;;;18.67;10.48;;;;;;;8.86;49.37;100479.12;1801734;79;25812;-57
2021/04/02 00:46:18;;;;;;;21.77;10.68;;;;;;;8.84;49.31;100466.32;1801720;79;27477;-57
2021/04/02 00:48:48;;;;;;;19.32;10.40;;;;;;;8.85;49.22;100469.36;1799838;79;25583;-57
2021/04/02 00:51:26;;;;;;;16.80;9.95;;;;;;;8.87;49.18;100466.06;1755454;80;25723;-57
2021/04/02 00:53:56;;;;;;;19.73;10.28;;;;;;;8.85;49.13;100460.84;1778126;80;25694;-57
2021/04/02 00:56:26;;;;;;;24.60;11.55;;;;;;;8.86;50.29;100450.95;1778066;80;26215;-57
2021/04/02 00:58:55;;;;;;;19.75;11.33;;;;;;;8.81;49.68;100445.98;1778177;80;27532;-57
2021/04/02 01:01:23;;;;;;;17.30;11.60;;;;;;;8.80;49.59;100444.28;1778055;80;26092;-57
2021/04/02 01:03:53;;;;;;;24.98;11.60;;;;;;;8.78;49.97;100442.25;1778302;80;25731;-57
2021/04/02 01:06:27;;;;;;;23.10;11.03;;;;;;;8.74;50.10;100446.16;1778216;80;25733;-57
2021/04/02 01:08:57;;;;;;;19.75;10.80;;;;;;;8.69;50.22;100450.58;1778231;80;25507;-57
2021/04/02 01:11:27;;;;;;;17.32;10.32;;;;;;;8.67;50.32;100448.52;1778038;80;26876;-56
2021/04/02 01:13:59;;;;;;;22.50;10.95;;;;;;;8.68;50.19;100445.36;1777668;80;26181;-57
2021/04/02 01:16:32;;;;;;;19.42;11.20;;;;;;;8.68;50.72;100439.99;1776744;80;25658;-57
2021/04/02 01:19:17;;;;;;;18.45;10.72;;;;;;;8.59;50.86;100437.13;1752833;81;25842;-57
2021/04/02 01:22:05;;;;;;;19.75;10.63;;;;;;;8.57;51.07;100432.85;1753007;81;26036;-57
2021/04/02 01:25:24;;;;;;;22.17;11.03;;;;;;;8.55;50.91;100438.86;1752880;81;27549;-57
2021/04/02 01:28:27;;;;;;;21.95;11.30;;;;;;;8.49;51.36;100435.34;1699797;83;26085;-58
2021/04/02 01:31:03;;;;;;;19.98;11.05;;;;;;;8.47;51.34;100431.46;1838100;77;25585;-57
2021/04/02 01:33:33;;;;;;;20.30;11.20;;;;;;;8.40;51.97;100434.28;1813531;79;25487;-57
2021/04/02 01:36:03;;;;;;;21.17;12.28;;;;;;;8.30;52.19;100434.19;1712161;82;27549;-56
2021/04/02 01:38:36;;;;;;;19.45;11.95;;;;;;;8.23;53.58;100426.31;1743317;80;25502;-57
2021/04/02 01:41:11;;;;;;;20.30;11.53;;;;;;;8.13;53.52;100420.39;1746702;82;25675;-57
2021/04/02 01:43:51;;;;;;;23.10;10.78;;;;;;;8.08;54.05;100425.77;1746752;82;25966;-56
2021/04/02 01:46:21;;;;;;;21.97;10.95;;;;;;;8.01;53.18;100418.77;1745087;82;26126;-57
2021/04/02 01:48:55;;;;;;;33.90;11.53;;;;;;;8.04;52.93;100417.64;1777551;80;27604;-57
2021/04/02 01:51:25;;;;;;;20.55;10.58;;;;;;;8.03;52.84;100422.64;1713729;82;25496;-57
2021/04/02 01:53:58;;;;;;;17.12;10.75;;;;;;;8.08;53.02;100420.41;1739555;80;25694;-57
2021/04/02 01:56:31;;;;;;;23.12;12.65;;;;;;;8.08;53.37;100419.94;1739909;82;25700;-57
2021/04/02 01:59:00;;;;;;;18.98;11.75;;;;;;;8.09;52.64;100414.95;1746647;82;26077;-56
2021/04/02 02:01:34;;;;;;;19.57;10.90;;;;;;;8.13;52.48;100414.20;1777580;80;27546;-57
2021/04/02 02:04:05;;;;;;;28.32;11.85;;;;;;;8.16;53.04;100413.91;1746643;82;25436;-57
2021/04/02 02:06:35;;;;;;;21.27;11.70;;;;;;;8.16;53.61;100404.53;1714880;82;25755;-57
2021/04/02 02:09:38;;;;;;;18.12;11.50;;;;;;;8.14;52.61;100403.34;1789895;80;25717;-57
2021/04/02 02:12:13;;;;;;;23.98;13.08;;;;;;;8.19;52.48;100401.61;1778832;80;25441;-58
2021/04/02 02:14:47;;;;;;;22.20;12.18;;;;;;;8.24;52.60;100409.26;1746596;82;27543;-57
2021/04/02 02:17:24;;;;;;;23.85;11.65;;;;;;;8.27;52.65;100412.53;1746390;82;25550;-57
2021/04/02 02:19:53;;;;;;;;;;;;;;;8.29;52.73;100407.89;1749219;82;25704;-57
2021/04/02 02:22:23;;;;;;;23.05;11.78;;;;;;;8.30;52.67;100402.03;1746774;81;25658;-57
2021/04/02 02:24:55;;;;;;;20.43;10.58;;;;;;;8.28;54.19;100404.02;1745502;82;26115;-57
2021/04/02 02:27:23;;;;;;;21.10;11.90;;;;;;;8.19;53.42;100402.95;1746738;81;28526;-57
2021/04/02 02:29:53;;;;;;;18.40;11.03;;;;;;;8.20;53.21;100402.48;1742184;81;26107;-57
2021/04/02 02:32:23;;;;;;;21.05;12.03;;;;;;;8.22;53.12;100398.68;1735975;82;25667;-57
2021/04/02 02:34:51;;;;;;;24.98;11.88;;;;;;;8.26;53.30;100397.42;1735945;82;25657;-57
2021/04/02 02:37:21;;;;;;;19.55;11.68;;;;;;;8.26;53.01;100390.72;1737552;82;25549;-57
2021/04/02 02:39:52;;;;;;;23.83;11.95;;;;;;;8.29;52.86;100388.30;1745098;80;28483;-56
2021/04/02 02:42:22;;;;;;;22.05;11.97;;;;;;;8.28;52.90;100382.58;1747116;80;26505;-57
2021/04/02 02:44:53;;;;;;;25.17;12.78;;;;;;;8.22;53.02;100377.72;1712625;82;25497;-57
2021/04/02 02:47:22;;;;;;;22.40;11.85;;;;;;;8.19;53.17;100379.34;1735532;82;25631;-57
2021/04/02 02:49:53;;;;;;;29.35;14.20;;;;;;;8.16;53.06;100379.08;1735363;82;25822;-57
2021/04/02 02:52:23;;;;;;;24.85;12.00;;;;;;;8.13;53.12;100378.86;1735533;82;27546;-57
2021/04/02 02:54:54;;;;;;;22.80;11.85;;;;;;;8.16;53.08;100373.72;1724857;83;25710;-57
2021/04/02 02:57:23;;;;;;;20.97;11.50;;;;;;;8.17;52.94;100373.25;1702138;83;25668;-57
2021/04/02 02:59:57;;;;;;;30.10;12.53;;;;;;;8.16;52.90;100377.74;1725031;83;25733;-58
2021/04/02 03:02:28;;;;;;;17.12;11.90;;;;;;;8.17;52.94;100380.78;1725215;83;25763;-57
2021/04/02 03:04:58;;;;;;;20.90;11.20;;;;;;;8.19;53.43;100375.31;1725011;83;26885;-57
2021/04/02 03:07:29;;;;;;;20.05;11.50;;;;;;;8.10;53.54;100371.10;1725008;83;25651;-57
2021/04/02 03:10:00;;;;;;;26.00;11.95;;;;;;;8.05;53.30;100373.30;1702404;83;25848;-57
2021/04/02 03:12:30;;;;;;;40.15;12.95;;;;;;;8.06;53.16;100376.34;1725026;83;25735;-58
2021/04/02 03:15:01;;;;;;;27.25;12.40;;;;;;;8.06;53.83;100372.33;1702443;83;25468;-57
2021/04/02 03:17:36;;;;;;;28.38;11.93;;;;;;;7.99;53.73;100377.84;1729411;82;27535;-57
2021/04/02 03:20:07;;;;;;;26.27;12.82;;;;;;;7.98;53.63;100367.61;1733529;82;26075;-57
2021/04/02 03:22:37;;;;;;;24.55;11.38;;;;;;;7.95;53.84;100373.24;1704719;84;25672;-57
2021/04/02 03:25:12;;;;;;;32.85;13.25;;;;;;;7.91;54.26;100371.78;1733202;82;25545;-57
2021/04/02 03:27:43;;;;;;;29.30;12.10;;;;;;;7.86;54.21;100356.61;1703280;84;25684;-58
2021/04/02 03:30:16;;;;;;;30.97;12.37;;;;;;;7.83;54.67;100366.23;1710306;82;27543;-57
2021/04/02 03:32:50;;;;;;;28.35;12.78;;;;;;;7.72;55.53;100356.89;1748221;80;25642;-57
2021/04/02 03:35:20;;;;;;;;;;;;;;;7.63;54.79;100353.17;1782643;80;26285;-57
2021/04/02 03:37:50;;;;;;;32.90;13.88;;;;;;;7.62;55.06;100358.16;1780719;80;25696;-57
2021/04/02 03:40:23;;;;;;;28.45;13.72;;;;;;;7.56;55.00;100351.48;1754652;79;25944;-57
2021/04/02 03:42:56;;;;;;;27.07;13.10;;;;;;;7.58;55.11;100354.89;1749996;80;28507;-57
2021/04/02 03:45:26;;;;;;;23.70;12.63;;;;;;;7.62;54.73;100355.48;1780619;80;25730;-57
2021/04/02 03:47:57;;;;;;;32.55;13.93;;;;;;;7.64;54.53;100358.89;1747989;80;25759;-57
2021/04/02 03:50:34;;;;;;;21.77;11.50;;;;;;;7.65;54.53;100353.90;1780692;80;25822;-57
2021/04/02 03:53:33;;;;;;;22.45;12.78;;;;;;;7.64;54.54;100354.37;1780789;80;25707;-58
2021/04/02 03:56:04;;;;;;;28.32;13.00;;;;;;;7.66;54.40;100359.62;1780629;80;27520;-57
2021/04/02 03:58:35;;;;;;;37.25;14.05;;;;;;;7.65;54.50;100357.91;1794733;78;25721;-57
2021/04/02 04:01:11;;;;;;;35.78;14.05;;;;;;;7.68;54.80;100365.67;1780686;80;25642;-57
2021/04/02 04:03:43;;;;;;;54.75;14.38;;;;;;;7.71;54.77;100372.12;1684728;83;25773;-57
2021/04/02 04:06:18;;;;;;;64.70;15.50;;;;;;;7.72;54.64;100375.63;1754775;80;25607;-57
2021/04/02 04:08:51;;;;;;;32.53;13.48;;;;;;;7.73;54.53;100374.19;1754209;80;28670;-57
2021/04/02 04:11:23;;;;;;;25.55;13.65;;;;;;;7.79;54.49;100373.67;1715830;83;27271;-57
2021/04/02 04:13:53;;;;;;;28.95;13.38;;;;;;;7.82;54.41;100378.78;1746000;82;25748;-57
2021/04/02 04:16:25;;;;;;;29.40;13.18;;;;;;;7.87;54.22;100376.19;1800909;78;25800;-57
2021/04/02 04:18:58;;;;;;;40.70;13.68;;;;;;;7.93;54.09;100381.05;1780588;80;25406;-57
2021/04/02 04:21:41;;;;;;;41.08;13.78;;;;;;;7.99;53.91;100382.70;1780595;80;28058;-57
2021/04/02 04:24:15;;;;;;;39.80;14.65;;;;;;;8.04;54.21;100372.94;1780364;80;25694;-58
2021/04/02 04:26:50;;;;;;;27.87;13.28;;;;;;;8.09;54.14;100385.48;1738966;82;25746;-57
2021/04/02 04:29:22;;;;;;;29.82;14.90;;;;;;;8.13;54.44;100384.22;1807943;79;25700;-58
2021/04/02 04:31:52;;;;;;;29.77;13.25;;;;;;;8.19;54.35;100378.00;1802454;79;26086;-57
2021/04/02 04:34:22;;;;;;;35.95;15.13;;;;;;;8.23;54.42;100380.76;1735391;82;27606;-57
2021/04/02 04:36:52;;;;;;;36.58;15.63;;;;;;;8.25;54.45;100382.32;1742182;81;25769;-57
2021/04/02 04:39:23;;;;;;;37.75;15.75;;;;;;;8.23;54.85;100374.06;1735357;82;25664;-57
2021/04/02 04:41:55;;;;;;;40.33;21.23;;;;;;;8.20;54.58;100371.16;1721320;82;25732;-57
2021/04/02 04:44:24;;;;;;;31.68;17.00;;;;;;;8.24;55.22;100372.61;1752262;81;25666;-58
2021/04/02 04:46:53;;;;;;;35.25;19.45;;;;;;;8.28;55.08;100370.02;1731902;81;27538;-57
2021/04/02 04:49:21;;;;;;;40.65;22.27;;;;;;;8.30;55.08;100366.72;1793537;79;25749;-57
2021/04/02 04:51:51;;;;;;;46.42;22.07;;;;;;;8.33;55.35;100374.98;1776960;79;25640;-57
2021/04/02 04:54:23;;;;;;;39.88;20.08;;;;;;;8.41;56.33;100376.50;1776115;79;25678;-57
2021/04/02 04:56:55;;;;;;;45.43;19.27;;;;;;;8.46;56.64;100387.70;1780440;79;25684;-57
2021/04/02 04:59:24;;;;;;;37.93;17.95;;;;;;;8.45;56.92;100395.38;1781779;79;28427;-59
2021/04/02 05:01:55;;;;;;;53.83;16.62;;;;;;;8.46;57.31;100384.16;1798752;79;25437;-57
2021/04/02 05:04:26;;;;;;;42.55;17.23;;;;;;;8.46;58.84;100381.00;1735457;82;25454;-57
2021/04/02 05:06:59;;;;;;;44.08;17.37;;;;;;;8.51;58.64;100383.79;1765827;81;25823;-57
2021/04/02 05:09:28;;;;;;;36.47;17.70;;;;;;;8.57;58.98;100385.93;1726823;82;26086;-57
2021/04/02 05:12:00;;;;;;;46.35;17.85;;;;;;;8.61;59.36;100372.13;1729205;82;27547;-57
2021/04/02 05:14:29;;;;;;;39.58;16.93;;;;;;;8.71;59.60;100374.88;1781476;79;26143;-57
2021/04/02 05:16:58;;;;;;;43.83;17.23;;;;;;;8.76;59.63;100375.81;1746500;81;25665;-57
2021/04/02 05:19:26;;;;;;;39.58;17.82;;;;;;;8.83;59.33;100378.31;1770146;79;25785;-57
2021/04/02 05:21:54;;;;;;;51.70;20.20;;;;;;;8.89;60.96;100373.73;1769862;80;25666;-57
2021/04/02 05:24:23;;;;;;;53.98;20.25;;;;;;;8.95;60.97;100368.83;1784774;79;27547;-57
2021/04/02 05:26:51;;;;;;;51.15;21.15;;;;;;;8.98;60.65;100360.49;1790249;79;25526;-57
2021/04/02 05:29:19;;;;;;;41.42;18.45;;;;;;;9.06;60.46;100356.63;1788452;79;25550;-57
2021/04/02 05:31:47;;;;;;;43.35;20.00;;;;;;;9.15;60.70;100355.81;1776301;78;25745;-57
2021/04/02 05:34:15;;;;;;;49.58;17.10;;;;;;;9.24;60.59;100346.94;1775522;79;25760;-57
2021/04/02 05:36:44;;;;;;;50.15;16.77;;;;;;;9.35;60.69;100345.99;1746006;81;28549;-57
2021/04/02 05:39:12;;;;;;;43.70;16.15;;;;;;;9.44;61.56;100338.09;1794174;79;25904;-57
2021/04/02 05:42:04;;;;;;;48.48;17.57;;;;;;;9.48;61.77;100332.77;1741068;81;25759;-57
2021/04/02 05:44:36;;;;;;;56.63;18.35;;;;;;;9.49;61.52;100320.57;1778213;80;25652;-57
2021/04/02 05:47:08;;;;;;;35.73;16.73;;;;;;;9.46;63.08;100303.90;1778224;80;26099;-57
2021/04/02 05:49:38;;;;;;;36.85;17.52;;;;;;;9.34;62.98;100324.16;1778266;80;28464;-57
2021/04/02 05:52:07;;;;;;;41.35;18.52;;;;;;;9.30;62.95;100330.78;1772534;80;25703;-57
2021/04/02 08:45:56;;;;;;;60.65;38.38;;;;;;;9.54;75.92;100360.43;1768014;78;25419;-57
2021/04/02 08:48:25;;;;;;;66.75;37.60;;;;;;;9.65;74.49;100356.25;1693478;84;26126;-57
2021/04/02 08:50:54;;;;;;;70.00;38.38;;;;;;;9.85;74.27;100352.23;1709726;83;27587;-57
2021/04/02 08:53:22;;;;;;;72.25;38.53;;;;;;;10.02;75.57;100347.98;1711709;83;25772;-56
2021/04/02 08:55:53;;;;;;;60.55;36.15;;;;;;;10.18;74.21;100344.20;1703654;83;25739;-57
2021/04/02 08:58:21;;;;;;;49.15;29.42;;;;;;;10.28;73.73;100344.69;1680580;83;25707;-58
2021/04/02 09:00:49;;;;;;;55.95;34.55;;;;;;;10.44;75.08;100342.78;1702625;82;25668;-58
2021/04/02 09:03:17;;;;;;;63.87;33.78;;;;;;;10.58;74.17;100338.77;1736546;82;28431;-58
2021/04/02 09:05:45;;;;;;;59.33;32.20;;;;;;;10.75;74.31;100336.66;1714713;82;26586;-58
2021/04/02 09:08:13;;;;;;;53.70;32.17;;;;;;;10.89;73.91;100332.59;1684767;82;25660;-58
2021/04/02 09:10:42;;;;;;;65.00;40.48;;;;;;;11.07;73.62;100323.75;1698972;83;25789;-58
2021/04/02 09:13:10;;;;;;;76.47;45.15;;;;;;;11.26;73.93;100323.61;1685468;83;26141;-58
2021/04/02 09:15:38;;;;;;;55.30;31.60;;;;;;;11.46;73.49;100322.64;1706692;82;27553;-59
2021/04/02 09:18:17;;;;;;;63.87;34.03;;;;;;;11.62;73.30;100312.50;1708391;82;25837;-59
2021/04/02 09:20:46;;;;;;;53.78;31.75;;;;;;;11.80;72.99;100313.86;1718026;83;25715;-59
2021/04/02 09:23:15;;;;;;;44.27;25.70;;;;;;;11.99;73.02;100311.50;1718117;83;25635;-59
2021/04/02 09:25:49;;;;;;;46.08;26.87;;;;;;;12.16;72.71;100307.09;1691762;83;25841;-59
2021/04/02 09:28:24;;;;;;;46.08;27.40;;;;;;;12.32;71.89;100309.05;1709349;83;28572;-59
2021/04/02 09:31:31;;;;;;;45.50;26.62;;;;;;;12.55;71.67;100303.93;1664018;83;26156;-58
2021/04/02 09:34:05;;;;;;;44.67;25.62;;;;;;;12.80;71.28;100308.12;1644072;87;25862;-58
2021/04/02 09:36:37;;;;;;;51.28;28.07;;;;;;;13.02;70.19;100306.69;1644009;87;26132;-57
2021/04/02 09:39:24;;;;;;;38.85;24.80;;;;;;;13.09;69.96;100309.06;1655363;84;25713;-58
2021/04/02 09:41:59;;;;;;;48.98;25.95;;;;;;;13.22;69.60;100307.23;1676435;84;28459;-57
2021/04/02 09:44:32;;;;;;;40.20;23.83;;;;;;;13.37;69.06;100302.53;1698292;83;25933;-58
2021/04/02 09:47:09;;;;;;;45.05;24.95;;;;;;;13.45;68.49;100300.73;1713533;82;25706;-58
2021/04/02 09:49:38;;;;;;;41.55;23.12;;;;;;;13.54;68.40;100306.15;1726757;80;26174;-58
2021/04/02 09:52:08;;;;;;;38.13;21.85;;;;;;;13.57;67.96;100306.66;1727557;83;25697;-58
2021/04/02 09:54:38;;;;;;;40.25;21.93;;;;;;;13.50;67.32;100312.39;1727223;83;28474;-58
2021/04/02 09:57:09;;;;;;;38.20;22.85;;;;;;;13.41;67.27;100311.52;1726007;81;25707;-58
2021/04/02 09:59:38;;;;;;;41.98;22.65;;;;;;;13.34;67.33;100305.59;1725956;82;25882;-58
2021/04/02 10:02:06;;;;;;;39.27;23.30;;;;;;;13.37;67.47;100308.80;1726254;82;25808;-58
2021/04/02 10:04:34;;;;;;;38.35;21.37;;;;;;;13.36;67.63;100309.80;1734558;82;25777;-58
2021/04/02 10:07:03;;;;;;;40.10;20.43;;;;;;;13.33;67.96;100313.34;1725894;81;27536;-58
2021/04/02 10:09:31;;;;;;;33.33;19.37;;;;;;;13.18;68.40;100303.69;1687608;84;25688;-58
2021/04/02 10:11:58;;;;;;;35.20;20.52;;;;;;;13.06;68.36;100312.59;1734792;81;25698;-58
2021/04/02 10:14:27;;;;;;;39.03;20.43;;;;;;;12.99;68.38;100302.95;1676011;82;26167;-58
2021/04/02 10:16:55;;;;;;;38.63;19.57;;;;;;;12.96;68.71;100313.58;1679175;84;25682;-58
2021/04/02 10:19:23;;;;;;;37.90;21.68;;;;;;;12.90;69.22;100304.80;1713663;82;27537;-58
2021/04/02 10:21:50;;;;;;;38.28;20.50;;;;;;;12.86;69.21;100306.62;1734660;82;25927;-58
2021/04/02 10:24:18;;;;;;;43.25;22.75;;;;;;;12.87;69.46;100309.64;1712700;82;25663;-58
2021/04/02 10:26:48;;;;;;;32.23;19.05;;;;;;;12.79;70.39;100311.30;1662181;85;28658;-58
2021/04/02 10:29:16;;;;;;;33.92;18.05;;;;;;;12.72;70.78;100305.39;1690907;83;25785;-58
2021/04/02 10:31:44;;;;;;;31.95;17.87;;;;;;;12.63;71.72;100309.88;1707231;84;27548;-58
2021/04/02 10:34:12;;;;;;;30.23;17.52;;;;;;;12.59;71.58;100309.36;1707228;84;25498;-58
2021/04/02 10:36:40;;;;;;;29.05;17.80;;;;;;;12.62;71.37;100308.19;1707302;84;25680;-58
2021/04/02 10:39:11;;;;;;;28.30;17.65;;;;;;;12.67;71.54;100304.52;1720401;82;25766;-58
2021/04/02 10:41:40;;;;;;;32.83;18.37;;;;;;;12.68;71.75;100315.14;1704724;81;25758;-58
2021/04/02 10:44:08;;;;;;;30.75;18.20;;;;;;;12.71;71.60;100314.48;1700142;83;27603;-58
2021/04/02 10:46:38;;;;;;;34.15;17.20;;;;;;;12.73;71.74;100318.71;1710578;82;26149;-58
2021/04/02 10:49:06;;;;;;;30.08;17.12;;;;;;;12.76;71.27;100316.19;1693264;84;25739;-58
2021/04/02 10:51:34;;;;;;;28.52;16.57;;;;;;;12.81;71.68;100314.70;1657386;85;25711;-58
2021/04/02 10:54:03;;;;;;;35.85;17.82;;;;;;;12.85;72.06;100317.91;1680526;84;26043;-58
2021/04/02 10:56:32;;;;;;;30.90;16.77;;;;;;;12.82;72.00;100316.39;1675852;84;27525;-58
2021/04/02 10:59:01;;;;;;;32.85;16.82;;;;;;;12.77;72.09;100316.53;1675887;85;26134;-58
2021/04/02 11:01:29;;;;;;;29.50;17.07;;;;;;;12.64;71.72;100325.91;1656410;84;25817;-58
2021/04/02 11:03:56;;;;;;;33.65;16.93;;;;;;;12.55;71.65;100328.73;1694858;82;25716;-58
2021/04/02 11:06:25;;;;;;;32.85;18.95;;;;;;;12.45;71.84;100326.98;1706132;83;25731;-58
2021/04/02 11:08:53;;;;;;;30.48;17.62;;;;;;;12.42;71.72;100330.00;1730087;81;27694;-58
2021/04/02 11:11:22;;;;;;;32.58;18.67;;;;;;;12.41;72.10;100326.12;1752003;80;25685;-58
2021/04/02 11:13:50;;;;;;;31.55;17.40;;;;;;;12.40;71.76;100334.73;1732287;82;25520;-57
2021/04/02 11:16:19;;;;;;;36.20;18.35;;;;;;;12.41;71.93;100333.73;1746516;79;25701;-57
2021/04/02 11:18:47;;;;;;;32.75;18.42;;;;;;;12.42;71.79;100334.05;1734074;82;25703;-57
2021/04/02 11:21:15;;;;;;;33.23;18.27;;;;;;;12.39;71.49;100334.38;1745227;81;28048;-58
2021/04/02 11:23:44;;;;;;;32.65;17.25;;;;;;;12.41;71.52;100341.81;1751507;81;25453;-58
2021/04/02 11:26:12;;;;;;;30.80;18.17;;;;;;;12.36;71.78;100344.12;1751444;81;25719;-58
2021/04/02 11:28:41;;;;;;;34.58;18.10;;;;;;;12.33;71.73;100353.88;1751388;81;25780;-58
2021/04/02 11:31:09;;;;;;;30.88;18.75;;;;;;;12.31;71.50;100355.39;1751099;81;25672;-58
2021/04/02 11:33:37;;;;;;;31.77;19.75;;;;;;;12.28;71.96;100357.05;1751469;81;28242;-57
2021/04/02 11:36:07;;;;;;;35.03;21.23;;;;;;;12.26;72.00;100360.42;1743168;81;25642;-57
2021/04/02 11:38:36;;;;;;;36.65;20.35;;;;;;;12.27;72.29;100354.52;1707880;83;25672;-58
2021/04/02 11:41:06;;;;;;;34.20;19.65;;;;;;;12.31;72.43;100357.25;1692969;83;25942;-58
2021/04/02 11:43:35;;;;;;;35.43;20.32;;;;;;;12.33;72.43;100357.92;1690781;83;25688;-58
2021/04/02 11:46:04;;;;;;;34.48;18.23;;;;;;;12.35;72.49;100358.13;1695810;81;28277;-57
2021/04/02 11:48:33;;;;;;;37.00;18.65;;;;;;;12.39;72.26;100358.66;1734947;81;25470;-58
2021/04/02 11:51:01;;;;;;;31.05;20.15;;;;;;;12.42;72.21;100357.48;1725764;82;25737;-58
2021/04/02 11:53:30;;;;;;;37.40;20.37;;;;;;;12.41;71.94;100364.75;1683433;83;25702;-57
2021/04/02 11:55:59;;;;;;;30.62;18.77;;;;;;;12.37;71.85;100359.31;1711627;82;26028;-58
2021/04/02 11:58:27;;;;;;;37.75;19.82;;;;;;;12.41;71.98;100365.23;1732506;82;27613;-57
2021/04/02 12:00:56;;;;;;;28.47;18.98;;;;;;;12.41;71.94;100363.88;1732617;82;25758;-58
2021/04/02 12:03:26;;;;;;;36.03;18.52;;;;;;;12.42;72.08;100361.02;1702787;82;25674;-57
2021/04/02 12:05:55;;;;;;;31.70;19.10;;;;;;;12.43;72.15;100360.53;1721121;82;25662;-57
2021/04/02 12:08:25;;;;;;;34.55;19.73;;;;;;;12.44;72.18;100370.33;1703717;82;25676;-57
2021/04/02 12:10:53;;;;;;;34.48;18.75;;;;;;;12.47;72.06;100365.94;1728361;82;28442;-58
2021/04/02 12:13:22;;;;;;;30.82;18.40;;;;;;;12.47;72.29;100367.29;1728051;82;25759;-57
2021/04/02 12:15:50;;;;;;;35.30;19.20;;;;;;;12.46;72.45;100377.77;1728444;82;25659;-58
2021/04/02 12:18:18;;;;;;;32.78;20.02;;;;;;;12.41;73.71;100378.72;1728408;82;25712;-58
2021/04/02 12:20:47;;;;;;;32.28;19.32;;;;;;;12.25;73.31;100379.44;1728887;82;25675;-58
2021/04/02 12:23:16;;;;;;;30.45;18.07;;;;;;;12.11;74.06;100376.80;1729093;82;28286;-58
2021/04/02 12:25:46;;;;;;;24.37;16.90;;;;;;;11.99;74.36;100374.37;1728724;82;25629;-58
2021/04/02 12:28:15;;;;;;;26.95;17.27;;;;;;;11.92;75.06;100377.80;1728976;82;25708;-58
2021/04/02 12:30:44;;;;;;;30.68;16.30;;;;;;;11.86;75.18;100381.95;1728889;82;25682;-57
2021/04/02 12:33:12;;;;;;;28.50;17.27;;;;;;;11.82;75.68;100384.11;1728964;82;25674;-57
2021/04/02 12:35:40;;;;;;;22.98;14.53;;;;;;;11.76;75.40;100384.73;1728984;82;28455;-58
2021/04/02 12:38:08;;;;;;;27.07;15.43;;;;;;;11.68;75.48;100391.39;1728920;82;25647;-57
2021/04/02 12:40:38;;;;;;;23.50;14.98;;;;;;;11.57;76.02;100397.83;1728210;82;25706;-58
2021/04/02 12:43:06;;;;;;;29.35;15.50;;;;;;;11.47;75.95;100399.25;1729020;82;25728;-58
2021/04/02 12:45:35;;;;;;;22.02;14.63;;;;;;;11.40;76.35;100401.69;1708749;82;25809;-58
2021/04/02 12:48:05;;;;;;;25.60;15.88;;;;;;;11.33;76.42;100403.30;1671490;85;27390;-58
2021/04/02 12:50:33;;;;;;;28.05;18.10;;;;;;;11.33;76.13;100411.38;1680359;84;25657;-57
2021/04/02 12:53:03;;;;;;;24.72;14.83;;;;;;;11.33;76.03;100414.06;1710639;83;25681;-58
2021/04/02 12:55:35;;;;;;;22.22;14.98;;;;;;;11.33;75.87;100411.38;1724034;83;25712;-58
2021/04/02 12:58:03;;;;;;;25.70;15.80;;;;;;;11.38;76.48;100414.97;1710158;83;26084;-58
2021/04/02 13:00:31;;;;;;;25.30;15.20;;;;;;;11.31;76.05;100415.22;1710040;83;26352;-57
2021/04/02 13:03:00;;;;;;;24.15;15.30;;;;;;;11.30;76.59;100414.36;1706774;83;25759;-58
2021/04/02 13:05:29;;;;;;;27.62;14.03;;;;;;;11.29;76.16;100426.16;1701114;83;25753;-58
2021/04/02 13:07:57;;;;;;;25.55;14.07;;;;;;;11.29;76.13;100424.81;1701187;84;25740;-58
2021/04/02 13:10:25;;;;;;;25.97;15.25;;;;;;;11.25;76.45;100430.13;1706474;83;25709;-58
2021/04/02 13:12:55;;;;;;;20.48;13.50;;;;;;;11.21;76.38;100439.48;1710205;83;27485;-58
2021/04/02 13:15:24;;;;;;;21.23;11.83;;;;;;;11.15;77.13;100438.73;1695715;83;26130;-58
2021/04/02 13:17:52;;;;;;;23.12;12.00;;;;;;;11.09;77.21;100445.56;1681668;83;25790;-58
2021/04/02 13:20:25;;;;;;;17.55;10.53;;;;;;;11.10;76.62;100440.05;1681522;84;25748;-58
2021/04/02 13:22:56;;;;;;;17.20;11.40;;;;;;;11.07;77.17;100437.64;1681539;85;25678;-58
2021/04/02 13:25:25;;;;;;;19.23;12.03;;;;;;;11.11;76.59;100436.84;1681570;85;27716;-58
2021/04/02 13:27:53;;;;;;;17.85;10.43;;;;;;;11.13;76.22;100441.59;1681353;85;25690;-58
2021/04/02 13:30:24;;;;;;;17.05;9.53;;;;;;;11.14;75.84;100440.59;1681533;85;25733;-58
2021/04/02 13:33:00;;;;;;;14.45;8.70;;;;;;;11.18;76.19;100441.98;1681695;85;25732;-58
2021/04/02 13:35:30;;;;;;;16.37;10.43;;;;;;;11.18;75.73;100452.75;1681627;84;25912;-58
2021/04/02 13:38:01;;;;;;;19.65;9.48;;;;;;;11.20;75.33;100449.42;1681507;84;27554;-58
2021/04/02 13:40:30;;;;;;;11.55;7.45;;;;;;;11.22;75.10;100459.55;1697284;83;25735;-58
2021/04/02 13:43:00;;;;;;;15.28;7.90;;;;;;;11.24;74.97;100460.73;1710206;83;25811;-58
2021/04/02 13:45:29;;;;;;;13.15;7.97;;;;;;;11.27;74.92;100465.33;1710189;83;25740;-58
2021/04/02 13:47:58;;;;;;;13.95;7.10;;;;;;;11.30;74.62;100467.37;1710162;83;25778;-58
2021/04/02 13:50:30;;;;;;;12.07;7.03;;;;;;;11.31;74.78;100463.18;1710146;83;27488;-58
2021/04/02 13:52:59;;;;;;;10.48;6.60;;;;;;;11.32;74.35;100465.39;1709616;83;26205;-58
2021/04/02 13:55:30;;;;;;;11.12;6.87;;;;;;;11.33;74.11;100465.23;1698126;83;25783;-58
2021/04/02 13:58:00;;;;;;;8.65;6.67;;;;;;;11.36;74.42;100462.26;1681303;85;25722;-58
2021/04/02 14:00:30;;;;;;;15.70;7.92;;;;;;;11.37;74.32;100470.69;1710029;83;25609;-58
2021/04/02 14:03:00;;;;;;;11.68;6.28;;;;;;;11.34;74.33;100478.22;1699192;83;27535;-58
2021/04/02 14:05:28;;;;;;;8.98;6.08;;;;;;;11.32;74.49;100480.20;1679897;85;25653;-58
2021/04/02 14:07:56;;;;;;;9.28;7.08;;;;;;;11.32;74.57;100488.28;1679784;85;25668;-58
2021/04/02 14:10:32;;;;;;;11.95;6.80;;;;;;;11.35;74.54;100485.27;1679867;84;25684;-58
2021/04/02 14:13:00;;;;;;;14.05;7.70;;;;;;;11.34;74.17;100485.78;1709386;83;25675;-58
2021/04/02 14:15:29;;;;;;;12.80;7.65;;;;;;;11.39;74.40;100488.87;1709692;83;27628;-58
2021/04/02 14:17:58;;;;;;;15.15;7.53;;;;;;;11.41;74.12;100488.74;1709974;83;25651;-58
2021/04/02 14:20:34;;;;;;;13.43;7.33;;;;;;;11.49;73.93;100491.54;1709824;83;25841;-58
2021/04/02 14:23:02;;;;;;;12.15;6.83;;;;;;;11.55;73.71;100502.22;1710019;83;25664;-58